createdAt,value
2019-03-13T00:02:38.568Z,-0.60
2019-03-13T00:06:43.510Z,-0.30
2019-03-13T00:10:48.730Z,-0.20
2019-03-13T00:14:54.096Z,-0.20
2019-03-13T00:18:59.010Z,-0.10
2019-03-13T00:23:03.884Z,-0.10
2019-03-13T00:27:08.987Z,-0.10
2019-03-13T00:31:14.096Z,-0.10
2019-03-13T00:35:19.015Z,-0.20
2019-03-13T00:39:23.993Z,-0.20
2019-03-13T00:43:28.898Z,-0.60
2019-03-13T00:47:33.925Z,-0.50
2019-03-13T00:51:38.840Z,-0.40
2019-03-13T00:55:43.882Z,-0.40
2019-03-13T00:59:48.841Z,-0.60
2019-03-13T01:04:10.189Z,-0.60
2019-03-13T01:08:15.085Z,-0.70
2019-03-13T01:12:20.133Z,-0.60
2019-03-13T01:16:25.019Z,-0.60
2019-03-13T01:20:30.065Z,-0.40
2019-03-13T01:24:35.052Z,-0.20
2019-03-13T01:28:40.090Z,-0.70
2019-03-13T01:32:53.313Z,-0.30
2019-03-13T01:36:58.263Z,-0.30
2019-03-13T01:41:03.266Z,-0.30
2019-03-13T01:45:08.493Z,-0.20
2019-03-13T01:49:13.746Z,-0.70
2019-03-13T01:53:18.810Z,-0.40
2019-03-13T01:57:23.935Z,-0.40
2019-03-13T02:01:29.528Z,-0.50
2019-03-13T02:05:34.461Z,-0.40
2019-03-13T02:09:39.503Z,-0.50
2019-03-13T02:13:44.378Z,-0.50
2019-03-13T02:17:49.379Z,-0.50
2019-03-13T02:21:54.311Z,-0.30
2019-03-13T02:25:59.392Z,-0.60
2019-03-13T02:30:04.946Z,-0.40
2019-03-13T02:34:09.964Z,-0.40
2019-03-13T02:38:14.873Z,-0.40
2019-03-13T02:42:20.040Z,-0.60
2019-03-13T02:46:25.129Z,-0.60
2019-03-13T02:50:31.310Z,-0.60
2019-03-13T02:54:36.660Z,-0.50
2019-03-13T02:58:41.540Z,-0.40
2019-03-13T03:02:49.606Z,-0.50
2019-03-13T03:06:54.494Z,-0.60
2019-03-13T03:10:59.539Z,-0.60
2019-03-13T03:15:07.232Z,-0.40
2019-03-13T03:19:12.264Z,-0.70
2019-03-13T03:23:17.202Z,-0.80
2019-03-13T03:27:22.248Z,-0.40
2019-03-13T03:31:27.123Z,-0.30
2019-03-13T03:35:32.223Z,-0.40
2019-03-13T03:39:37.171Z,-0.50
2019-03-13T03:43:42.231Z,-0.20
2019-03-13T03:47:47.168Z,-0.10
2019-03-13T03:51:52.263Z,0.00
2019-03-13T03:55:57.297Z,0.20
2019-03-13T04:00:02.394Z,0.20
2019-03-13T04:04:07.303Z,0.20
2019-03-13T04:08:12.330Z,0.20
2019-03-13T04:12:17.237Z,0.30
2019-03-13T04:16:22.219Z,0.40
2019-03-13T04:20:27.205Z,0.30
2019-03-13T04:24:32.255Z,0.40
2019-03-13T04:28:37.193Z,0.50
2019-03-13T04:32:42.175Z,0.60
2019-03-13T04:36:47.104Z,0.60
2019-03-13T04:40:52.099Z,0.70
2019-03-13T04:44:57.095Z,0.70
2019-03-13T04:49:02.058Z,0.80
2019-03-13T04:53:06.931Z,0.80
2019-03-13T04:57:12.348Z,1.00
2019-03-13T05:01:17.518Z,1.00
2019-03-13T05:05:44.635Z,1.00
2019-03-13T05:09:50.100Z,1.00
2019-03-13T05:13:55.285Z,1.10
2019-03-13T05:18:00.663Z,1.20
2019-03-13T05:22:05.901Z,1.30
2019-03-13T05:26:12.185Z,1.20
2019-03-13T05:30:17.414Z,1.30
2019-03-13T05:34:23.844Z,1.40
2019-03-13T05:38:29.106Z,1.30
2019-03-13T05:42:35.413Z,1.40
2019-03-13T05:46:41.263Z,1.40
2019-03-13T05:50:46.400Z,1.50
2019-03-13T05:54:51.719Z,1.60
2019-03-13T05:58:56.995Z,1.70
2019-03-13T06:03:02.272Z,1.70
2019-03-13T06:07:10.932Z,1.80
2019-03-13T06:11:16.171Z,1.90
2019-03-13T06:15:21.490Z,2.00
2019-03-13T06:19:26.895Z,2.10
2019-03-13T06:23:32.033Z,2.30
2019-03-13T06:27:37.350Z,2.50
2019-03-13T06:31:42.532Z,2.60
2019-03-13T06:35:47.891Z,2.50
2019-03-13T06:39:53.046Z,2.50
2019-03-13T06:43:58.546Z,2.60
2019-03-13T06:48:03.871Z,3.00
2019-03-13T06:52:09.097Z,3.00
2019-03-13T06:56:14.555Z,3.10
2019-03-13T07:00:49.026Z,3.30
2019-03-13T07:05:13.710Z,3.50
2019-03-13T07:09:28.883Z,3.50
2019-03-13T07:13:42.881Z,3.80
2019-03-13T07:18:05.676Z,4.10
2019-03-13T07:22:32.229Z,4.50
2019-03-13T07:26:52.896Z,4.70
2019-03-13T07:31:15.645Z,4.90
2019-03-13T07:35:36.840Z,4.90
2019-03-13T07:39:57.640Z,5.10
2019-03-13T07:44:20.790Z,5.40
2019-03-13T07:48:43.124Z,5.20
2019-03-13T07:52:55.790Z,5.20
2019-03-13T07:57:20.149Z,5.40
2019-03-13T08:01:38.479Z,5.70
2019-03-13T08:06:01.405Z,5.90
2019-03-13T08:10:21.082Z,5.90
2019-03-13T08:14:44.127Z,5.80
2019-03-13T08:19:10.757Z,5.80
2019-03-13T08:23:46.433Z,6.00
2019-03-13T08:28:13.331Z,6.00
2019-03-13T08:32:41.821Z,6.10
2019-03-13T08:37:04.662Z,6.10
2019-03-13T08:41:18.292Z,6.40
2019-03-13T08:45:34.067Z,6.30
2019-03-13T08:50:10.015Z,6.30
2019-03-13T08:54:52.101Z,6.40
2019-03-13T08:59:06.031Z,6.20
2019-03-13T09:03:31.590Z,6.20
2019-03-13T09:08:11.256Z,6.30
2019-03-13T09:12:41.227Z,6.40
2019-03-13T09:17:05.529Z,6.50
2019-03-13T09:21:33.435Z,6.40
2019-03-13T09:25:51.952Z,6.40
2019-03-13T09:30:15.835Z,6.60
2019-03-13T09:34:48.867Z,6.90
2019-03-13T09:39:05.188Z,7.20
2019-03-13T09:43:31.811Z,7.30
2019-03-13T09:47:46.793Z,7.50
2019-03-13T09:52:07.782Z,7.20
2019-03-13T09:56:35.741Z,6.80
2019-03-13T10:00:59.031Z,6.50
2019-03-13T10:05:10.913Z,6.10
2019-03-13T10:09:41.908Z,5.80
2019-03-13T10:14:03.275Z,5.60
2019-03-13T10:18:36.512Z,5.40
2019-03-13T10:22:56.447Z,5.30
2019-03-13T10:27:32.617Z,5.20
2019-03-13T10:32:02.553Z,5.10
2019-03-13T10:36:29.514Z,5.20
2019-03-13T10:40:58.126Z,5.30
2019-03-13T10:45:25.219Z,5.40
2019-03-13T10:49:45.015Z,5.50
2019-03-13T10:54:24.444Z,5.70
2019-03-13T10:58:36.302Z,5.80
2019-03-13T11:03:12.679Z,6.20
2019-03-13T11:07:36.721Z,6.40
2019-03-13T11:12:04.263Z,6.50
2019-03-13T11:16:17.731Z,6.20
2019-03-13T11:20:53.993Z,6.20
2019-03-13T11:25:08.607Z,6.50
2019-03-13T11:29:33.270Z,6.90
2019-03-13T11:33:57.594Z,7.00
2019-03-13T11:38:20.541Z,7.30
2019-03-13T11:42:44.523Z,7.70
2019-03-13T11:47:12.711Z,7.50
2019-03-13T11:51:32.535Z,7.20
2019-03-13T11:55:56.795Z,6.90
2019-03-13T12:00:19.803Z,6.80
2019-03-13T12:04:44.149Z,6.20
2019-03-13T12:09:06.800Z,6.00
2019-03-13T12:13:39.960Z,5.60
2019-03-13T12:18:06.896Z,5.60
2019-03-13T12:22:37.075Z,5.70
2019-03-13T12:27:00.148Z,5.40
2019-03-13T12:31:22.043Z,5.30
2019-03-13T12:35:44.627Z,5.40
2019-03-13T12:39:57.258Z,5.50
2019-03-13T12:44:09.990Z,5.60
2019-03-13T12:48:26.128Z,5.50
2019-03-13T12:52:48.897Z,5.50
2019-03-13T12:57:12.939Z,5.40
2019-03-13T13:01:35.808Z,5.40
2019-03-13T13:06:12.835Z,5.30
2019-03-13T13:10:35.195Z,5.20
2019-03-13T13:15:08.407Z,5.20
2019-03-13T13:19:13.324Z,5.20
2019-03-13T13:23:19.376Z,5.00
2019-03-13T13:27:24.438Z,4.90
2019-03-13T13:31:29.382Z,4.70
2019-03-13T13:35:34.295Z,4.60
2019-03-13T13:39:40.218Z,4.70
2019-03-13T13:43:45.147Z,4.70
2019-03-13T13:47:50.143Z,4.90
2019-03-13T13:51:55.154Z,5.00
2019-03-13T13:56:00.070Z,5.10
2019-03-13T14:00:05.890Z,5.20
2019-03-13T14:04:10.814Z,5.30
2019-03-13T14:08:15.757Z,5.40
2019-03-13T14:12:20.847Z,5.60
2019-03-13T14:16:25.772Z,6.00
2019-03-13T14:20:30.843Z,6.00
2019-03-13T14:24:37.326Z,6.10
2019-03-13T14:28:42.319Z,6.20
2019-03-13T14:32:47.387Z,6.20
2019-03-13T14:36:52.642Z,6.20
2019-03-13T14:40:57.755Z,6.00
2019-03-13T14:45:03.355Z,5.90
2019-03-13T14:49:08.671Z,5.80
2019-03-13T14:53:13.635Z,5.70
2019-03-13T14:57:20.729Z,5.80
2019-03-13T15:01:26.204Z,5.70
2019-03-13T15:05:31.071Z,5.80
2019-03-13T15:09:39.144Z,5.80
2019-03-13T15:13:43.500Z,5.80
2019-03-13T15:17:48.485Z,5.80
2019-03-13T15:21:55.049Z,5.70
2019-03-13T15:26:00.563Z,5.60
2019-03-13T15:30:07.663Z,5.60
2019-03-13T15:34:12.690Z,5.60
2019-03-13T15:38:17.956Z,5.50
2019-03-13T15:42:23.215Z,5.60
2019-03-13T15:46:28.660Z,5.70
2019-03-13T15:50:33.678Z,5.70
2019-03-13T15:54:38.706Z,5.60
2019-03-13T15:58:44.040Z,5.60
2019-03-13T16:02:49.195Z,5.50
2019-03-13T16:06:54.952Z,5.30
2019-03-13T16:10:59.922Z,5.30
2019-03-13T16:15:05.661Z,5.20
2019-03-13T16:19:10.777Z,5.10
2019-03-13T16:23:17.259Z,5.00
2019-03-13T16:27:22.408Z,4.90
2019-03-13T16:31:27.533Z,4.90
2019-03-13T16:35:32.728Z,4.80
2019-03-13T16:39:39.190Z,4.70
2019-03-13T16:43:44.394Z,4.60
2019-03-13T16:47:49.319Z,4.60
2019-03-13T16:51:54.511Z,4.40
2019-03-13T16:55:59.831Z,4.40
2019-03-13T17:00:05.485Z,4.40
2019-03-13T17:04:10.902Z,4.40
2019-03-13T17:08:15.907Z,4.40
2019-03-13T17:12:20.822Z,4.40
2019-03-13T17:16:25.718Z,4.40
2019-03-13T17:20:30.804Z,4.40
2019-03-13T17:24:35.717Z,4.40
2019-03-13T17:28:40.771Z,4.40
2019-03-13T17:32:45.668Z,4.40
2019-03-13T17:36:50.733Z,4.30
2019-03-13T17:40:55.755Z,4.30
2019-03-13T17:45:00.973Z,4.30
2019-03-13T17:49:06.010Z,4.30
2019-03-13T17:53:11.198Z,4.30
2019-03-13T17:57:16.107Z,4.30
2019-03-13T18:01:21.170Z,4.20
2019-03-13T18:05:26.147Z,4.30
2019-03-13T18:09:31.217Z,4.30
2019-03-13T18:13:36.151Z,4.30
2019-03-13T18:17:41.376Z,4.30
2019-03-13T18:21:48.207Z,4.30
2019-03-13T18:25:54.929Z,4.20
2019-03-13T18:30:01.231Z,4.30
2019-03-13T18:34:07.576Z,4.30
2019-03-13T18:38:12.574Z,4.30
2019-03-13T18:42:17.538Z,4.30
2019-03-13T18:46:25.374Z,4.30
2019-03-13T18:50:30.836Z,4.20
2019-03-13T18:54:36.589Z,4.20
2019-03-13T18:58:41.483Z,4.20
2019-03-13T19:02:48.168Z,4.20
2019-03-13T19:06:53.297Z,4.20
2019-03-13T19:10:58.620Z,4.20
2019-03-13T19:15:03.806Z,4.20
2019-03-13T19:19:08.751Z,4.20
2019-03-13T19:23:14.383Z,4.20
2019-03-13T19:27:22.277Z,4.10
2019-03-13T19:31:27.355Z,4.10
2019-03-13T19:35:32.392Z,4.10
2019-03-13T19:39:37.516Z,4.10
2019-03-13T19:43:42.844Z,4.10
2019-03-13T19:47:47.977Z,4.20
2019-03-13T19:51:52.985Z,4.10
2019-03-13T19:55:57.862Z,4.20
2019-03-13T20:00:04.518Z,4.20
2019-03-13T20:04:10.546Z,4.10
2019-03-13T20:08:15.732Z,4.00
2019-03-13T20:12:21.145Z,4.00
2019-03-13T20:16:26.559Z,3.80
2019-03-13T20:20:32.004Z,3.80
2019-03-13T20:24:39.505Z,3.70
2019-03-13T20:28:46.183Z,3.60
2019-03-13T20:32:52.123Z,3.50
2019-03-13T20:36:58.829Z,3.40
2019-03-13T20:41:05.087Z,3.30
2019-03-13T20:45:12.048Z,3.30
2019-03-13T20:49:17.031Z,3.20
2019-03-13T20:53:21.958Z,3.10
2019-03-13T20:57:27.990Z,3.10
2019-03-13T21:01:32.933Z,3.10
2019-03-13T21:05:37.907Z,3.10
2019-03-13T21:09:44.966Z,3.10
2019-03-13T21:13:50.681Z,3.10
2019-03-13T21:17:55.989Z,3.00
2019-03-13T21:22:00.929Z,3.00
2019-03-13T21:26:05.946Z,2.90
2019-03-13T21:30:15.123Z,2.80
2019-03-13T21:34:20.187Z,2.90
2019-03-13T21:38:25.249Z,2.90
2019-03-13T21:42:30.140Z,2.80
2019-03-13T21:46:37.223Z,2.70
2019-03-13T21:50:43.586Z,2.60
2019-03-13T21:54:52.108Z,2.40
2019-03-13T21:58:57.392Z,2.40
2019-03-13T22:03:03.792Z,2.20
2019-03-13T22:07:08.924Z,2.20
2019-03-13T22:11:15.485Z,2.10
2019-03-13T22:15:20.813Z,1.90
2019-03-13T22:19:25.706Z,1.90
2019-03-13T22:23:30.764Z,1.80
2019-03-13T22:27:35.651Z,1.70
2019-03-13T22:31:41.772Z,1.60
2019-03-13T22:35:46.748Z,1.40
2019-03-13T22:39:51.719Z,1.20
2019-03-13T22:43:57.699Z,1.10
2019-03-13T22:48:02.601Z,1.00
2019-03-13T22:52:07.743Z,0.80
2019-03-13T22:56:13.119Z,0.80
2019-03-13T23:00:52.832Z,0.60
2019-03-13T23:04:57.822Z,0.60
2019-03-13T23:09:04.997Z,0.60
2019-03-13T23:13:10.366Z,0.50
2019-03-13T23:17:15.316Z,0.40
2019-03-13T23:21:20.187Z,0.20
2019-03-13T23:25:27.261Z,0.20
2019-03-13T23:29:32.132Z,0.20
2019-03-13T23:33:37.155Z,0.20
2019-03-13T23:37:42.046Z,0.00
2019-03-13T23:41:47.139Z,-0.10
2019-03-13T23:45:52.100Z,-0.20
2019-03-13T23:49:57.152Z,-0.20
2019-03-13T23:54:02.245Z,-0.50
2019-03-13T23:58:07.326Z,-0.50
